SBOSBO BLQ / LIPE
Speedbird OnlineSpeedbird Online BLQ / LIPE

Bologna Guglielmo Marconi Airport
18:32 16.4°C

Location Bologna, Italy
Latitude: 44.5354
Longitude: 11.2887
Local Time 18:32 on 17 Apr 2024
UTC +2 hours (Europe/Rome)
Currency £1 equals EUR 1.17
METAR LIPE 171550Z 01008KT 9999 FEW060 16/04 Q1003
TAF TAF LIPE 171100Z 1712/1812 29009KT 9999 SCT020 PROB40 TEMPO 1716/1720 TSRA TEMPO 1720/1812 RA
Weather As Of 17 Apr 2024 18:32
Description Few clouds
Wind 15 km/h from North (10°)
Cloud Cover 20%
Precipitation Rain: none, Snow: none
Sunrise 06:26
Sunset 20:01
NOTAM 44 active NOTAM
Rotations During the last 90 days there were
201 flights from LHR
201 flights to LHR
Lounges Marconi Business Lounge , Terminal A
Web Airport Website | Wikipedia
Codes IATA: BLQ
ICAO: LIPE
Altitude 37 Meter / 123 Feet
Distance 1,133 KM / 704 Miles
from London.
Runways
RunwayLength (m)Surface
122803Asphalt
302803Asphalt
Radio
TypeDescriptionFrequency
APPAPP120.1
ATISATIS134.875
GNDGND129.925
TWRTWR120.8
Live ATC



Support Speedbird Online

© 2017-2024 Speedbird Online